createdAt,value
2019-04-23T00:01:14.819Z,12.33
2019-04-23T00:03:40.419Z,12.53
2019-04-23T00:06:18.977Z,9.50
2019-04-23T00:08:52.195Z,17.27
2019-04-23T00:16:23.990Z,6.95
2019-04-23T00:18:46.389Z,8.08
2019-04-23T00:21:38.522Z,10.88
2019-04-23T00:24:11.751Z,14.45
2019-04-23T00:26:36.741Z,14.70
2019-04-23T00:29:11.737Z,9.08
2019-04-23T00:31:38.845Z,9.35
2019-04-23T00:34:10.572Z,9.15
2019-04-23T00:39:11.752Z,9.35
2019-04-23T00:41:42.521Z,12.85
2019-04-23T00:44:21.262Z,10.53
2019-04-23T00:46:46.583Z,21.40
2019-04-23T00:49:21.294Z,18.30
2019-04-23T00:51:56.976Z,29.57
2019-04-23T00:54:27.397Z,25.50
2019-04-23T00:56:54.541Z,14.75
2019-04-23T00:59:24.013Z,8.98
2019-04-23T01:02:08.861Z,23.07
2019-04-23T01:04:27.527Z,16.40
2019-04-23T01:06:58.323Z,13.50
2019-04-23T01:09:35.603Z,12.37
2019-04-23T01:12:07.439Z,11.85
2019-04-23T01:14:36.054Z,13.05
2019-04-23T01:17:08.586Z,10.08
2019-04-23T01:19:55.070Z,15.32
2019-04-23T01:21:55.815Z,13.10
2019-04-23T01:24:44.234Z,12.18
2019-04-23T01:27:47.429Z,11.80
2019-04-23T01:32:41.065Z,12.33
2019-04-23T01:35:17.737Z,8.83
2019-04-23T01:40:21.987Z,10.68
2019-04-23T01:55:42.175Z,9.50
2019-04-23T01:58:06.934Z,8.80
2019-04-23T02:00:30.357Z,8.40
2019-04-23T02:03:03.683Z,8.03
2019-04-23T02:08:05.170Z,7.53
2019-04-23T02:10:47.335Z,6.20
2019-04-23T02:13:11.340Z,5.87
2019-04-23T02:15:46.204Z,7.78
2019-04-23T02:18:17.947Z,9.90
2019-04-23T02:20:47.998Z,4.83
2019-04-23T02:28:46.306Z,8.58
2019-04-23T02:34:14.380Z,5.35
2019-04-23T02:36:36.225Z,6.60
2019-04-23T02:41:27.130Z,5.00
2019-04-23T02:44:06.982Z,6.42
2019-04-23T02:46:17.533Z,6.05
2019-04-23T02:54:29.130Z,4.40
2019-04-23T02:56:39.263Z,4.35
2019-04-23T02:59:16.410Z,7.17
2019-04-23T03:01:31.785Z,6.05
2019-04-23T17:04:03.598Z,9.30
2019-04-23T17:06:29.365Z,10.72
2019-04-23T17:09:01.755Z,11.48
2019-04-23T17:14:08.097Z,15.15
2019-04-23T17:19:22.431Z,9.95
2019-04-23T17:21:38.998Z,11.38
2019-04-23T17:24:21.169Z,8.38
2019-04-23T17:31:59.096Z,8.50
2019-04-23T17:34:32.199Z,8.65
2019-04-23T17:37:07.132Z,7.47
2019-04-23T17:39:43.528Z,10.10
2019-04-23T17:42:25.561Z,12.37
2019-04-23T17:45:06.067Z,9.10
2019-04-23T17:47:34.653Z,15.30
2019-04-23T17:50:13.666Z,12.18
2019-04-23T17:52:41.821Z,10.70
2019-04-23T17:55:10.891Z,26.90
2019-04-23T17:57:45.948Z,12.07
2019-04-23T18:02:55.449Z,11.80
2019-04-23T18:05:14.692Z,9.43
2019-04-23T18:07:50.483Z,12.53
2019-04-23T18:12:53.679Z,9.55
2019-04-23T18:15:15.595Z,11.00
2019-04-23T18:17:54.729Z,7.87
2019-04-23T18:20:39.812Z,9.93
2019-04-23T18:23:09.762Z,13.55
2019-04-23T18:28:16.926Z,10.08
2019-04-23T18:36:33.363Z,16.67
2019-04-23T18:39:06.738Z,10.70
2019-04-23T18:41:47.542Z,13.00
2019-04-23T18:44:13.282Z,12.98
2019-04-23T18:46:42.134Z,8.83
2019-04-23T18:49:13.587Z,13.65
2019-04-23T18:51:55.078Z,12.30
2019-04-23T18:54:15.277Z,13.93
2019-04-23T18:57:09.969Z,10.08
2019-04-23T19:02:07.998Z,13.18
2019-04-23T19:04:56.720Z,17.00
2019-04-23T19:07:38.497Z,14.03
2019-04-23T19:15:22.487Z,12.15
2019-04-23T19:25:23.919Z,11.00
2019-04-23T19:27:55.764Z,9.58
2019-04-23T19:30:43.016Z,13.05
2019-04-23T19:36:05.127Z,12.33
2019-04-23T19:38:17.266Z,15.53
2019-04-23T19:41:02.239Z,15.65
2019-04-23T19:43:25.174Z,17.42
2019-04-23T19:46:03.543Z,13.88
2019-04-23T19:53:42.941Z,17.30
2019-04-23T19:56:08.909Z,15.88
2019-04-23T19:58:39.524Z,15.75
2019-04-23T20:11:09.272Z,18.57
2019-04-23T20:18:52.488Z,13.10
2019-04-23T20:21:31.788Z,12.05
2019-04-23T20:24:04.842Z,12.50
2019-04-23T20:39:25.007Z,8.78
2019-04-23T20:52:10.415Z,9.73
2019-04-23T20:54:57.863Z,11.03
2019-04-23T21:00:24.253Z,13.70
2019-04-23T21:03:30.589Z,10.48
2019-04-23T21:05:40.848Z,13.78
2019-04-23T21:08:29.788Z,10.65
2019-04-23T21:11:03.081Z,9.73
2019-04-23T21:13:42.874Z,12.37
2019-04-23T21:15:52.524Z,12.13
2019-04-23T21:18:33.104Z,0.20
2019-04-23T21:25:52.667Z,0.10
2019-04-23T21:28:40.304Z,0.00
2019-04-23T21:33:59.613Z,0.72
2019-04-23T21:36:49.374Z,13.62
2019-04-23T21:40:04.749Z,15.78
2019-04-23T21:42:44.343Z,22.75
2019-04-23T21:45:02.215Z,51.18
2019-04-23T21:50:12.292Z,24.50
2019-04-23T21:52:41.607Z,27.82
2019-04-23T21:55:07.399Z,31.52
2019-04-23T21:57:52.924Z,23.50
2019-04-23T22:00:07.887Z,33.75
2019-04-23T22:02:51.993Z,16.95
2019-04-23T22:05:15.972Z,23.38
2019-04-23T22:07:51.900Z,18.23
2019-04-23T22:10:18.207Z,16.05
2019-04-23T22:13:02.211Z,18.87
2019-04-23T22:15:20.363Z,20.43
2019-04-23T22:17:50.135Z,21.20
2019-04-23T22:20:26.340Z,17.65
2019-04-23T22:23:03.840Z,17.55
2019-04-23T22:25:34.811Z,18.42
2019-04-23T22:27:58.254Z,17.30
2019-04-23T22:30:33.889Z,14.30
2019-04-23T22:33:02.650Z,16.20
2019-04-23T22:35:34.182Z,14.03
2019-04-23T22:38:20.704Z,18.37
2019-04-23T22:40:35.058Z,14.63
2019-04-23T22:45:43.190Z,10.40
2019-04-23T22:48:08.038Z,12.45
2019-04-23T22:50:48.512Z,11.70
2019-04-23T22:55:49.682Z,11.63
2019-04-23T22:58:16.193Z,13.83
2019-04-23T23:01:17.473Z,16.60
2019-04-23T23:03:47.531Z,13.00
2019-04-23T23:06:30.992Z,8.80
2019-04-23T23:08:55.436Z,10.50
2019-04-23T23:11:10.322Z,13.45
2019-04-23T23:14:09.593Z,10.50
2019-04-23T23:16:14.476Z,13.05
2019-04-23T23:18:52.435Z,8.00
2019-04-23T23:23:46.535Z,10.75
2019-04-23T23:26:24.243Z,9.60
2019-04-23T23:28:58.381Z,8.05
2019-04-23T23:33:59.321Z,8.03
2019-04-23T23:36:33.255Z,12.00
2019-04-23T23:44:26.273Z,7.10
2019-04-23T23:46:35.463Z,10.53
2019-04-23T23:49:03.205Z,12.85
2019-04-23T23:54:13.963Z,13.95
2019-04-23T23:59:13.089Z,8.75
